createdAt,value
2019-01-02T00:02:29.705Z,17.65
2019-01-02T00:05:02.661Z,14.40
2019-01-02T00:07:36.364Z,16.45
2019-01-02T00:10:09.127Z,15.27
2019-01-02T00:12:42.690Z,14.20
2019-01-02T00:15:15.398Z,14.03
2019-01-02T00:17:48.415Z,14.30
2019-01-02T00:20:19.760Z,14.53
2019-01-02T00:22:53.396Z,13.53
2019-01-02T00:25:25.573Z,12.23
2019-01-02T00:28:01.556Z,13.27
2019-01-02T00:30:35.032Z,12.37
2019-01-02T00:33:08.350Z,13.33
2019-01-02T00:35:42.278Z,13.30
2019-01-02T00:38:15.284Z,12.83
2019-01-02T00:40:51.126Z,10.83
2019-01-02T00:43:24.529Z,11.07
2019-01-02T00:45:58.310Z,10.47
2019-01-02T00:48:31.318Z,8.77
2019-01-02T00:51:06.885Z,8.67
2019-01-02T00:53:39.631Z,9.03
2019-01-02T00:56:12.581Z,10.30
2019-01-02T00:58:46.919Z,9.63
2019-01-02T01:01:19.853Z,10.00
2019-01-02T01:03:52.279Z,9.30
2019-01-02T01:06:27.945Z,9.27
2019-01-02T01:09:01.304Z,8.40
2019-01-02T01:11:35.492Z,8.40
2019-01-02T01:14:08.694Z,8.30
2019-01-02T01:16:41.386Z,7.87
2019-01-02T01:19:15.074Z,9.13
2019-01-02T01:21:47.262Z,9.03
2019-01-02T01:24:20.404Z,8.73
2019-01-02T01:26:51.366Z,8.03
2019-01-02T01:29:27.950Z,8.13
2019-01-02T01:32:00.809Z,8.07
2019-01-02T01:34:34.855Z,8.87
2019-01-02T01:37:08.986Z,8.43
2019-01-02T01:39:45.446Z,8.07
2019-01-02T01:42:21.231Z,8.57
2019-01-02T01:44:54.375Z,7.90
2019-01-02T01:47:27.441Z,7.77
2019-01-02T01:50:01.871Z,8.27
2019-01-02T01:52:34.810Z,7.40
2019-01-02T01:55:11.359Z,8.70
2019-01-02T01:57:44.572Z,8.50
2019-01-02T02:00:18.466Z,7.77
2019-01-02T02:02:51.466Z,9.70
2019-01-02T02:05:25.714Z,9.37
2019-01-02T02:08:00.373Z,8.47
2019-01-02T02:10:35.060Z,9.30
2019-01-02T02:13:07.611Z,9.23
2019-01-02T02:15:40.924Z,9.20
2019-01-02T02:18:13.449Z,8.43
2019-01-02T02:20:47.089Z,8.93
2019-01-02T02:23:20.184Z,8.80
2019-01-02T02:25:53.090Z,8.03
2019-01-02T02:28:25.762Z,8.43
2019-01-02T02:31:00.284Z,8.70
2019-01-02T02:33:34.208Z,8.50
2019-01-02T02:36:07.402Z,11.07
2019-01-02T02:38:40.126Z,10.67
2019-01-02T02:41:13.434Z,9.13
2019-01-02T02:43:48.126Z,8.23
2019-01-02T02:46:20.922Z,7.20
2019-01-02T02:48:53.519Z,8.70
2019-01-02T02:51:27.704Z,9.13
2019-01-02T02:54:03.478Z,7.97
2019-01-02T02:56:36.699Z,7.43
2019-01-02T02:59:10.953Z,7.43
2019-01-02T03:01:44.240Z,7.07
2019-01-02T03:04:17.551Z,6.97
2019-01-02T03:06:53.414Z,6.63
2019-01-02T03:09:25.661Z,6.77
2019-01-02T03:11:58.575Z,5.13
2019-01-02T03:14:33.478Z,5.30
2019-01-02T03:17:06.192Z,4.93
2019-01-02T03:19:39.533Z,4.67
2019-01-02T03:22:13.124Z,5.10
2019-01-02T03:24:50.024Z,4.80
2019-01-02T03:27:23.501Z,4.83
2019-01-02T03:29:56.824Z,5.70
2019-01-02T03:32:33.031Z,5.87
2019-01-02T03:35:06.358Z,7.10
2019-01-02T03:37:39.171Z,6.80
2019-01-02T03:40:11.873Z,6.57
2019-01-02T03:42:45.181Z,7.40
2019-01-02T03:45:19.505Z,7.43
2019-01-02T03:48:05.553Z,6.33
2019-01-02T03:50:41.997Z,6.20
2019-01-02T03:53:14.744Z,6.33
2019-01-02T03:55:47.801Z,6.43
2019-01-02T03:58:21.361Z,6.00
2019-01-02T04:00:54.018Z,7.77
2019-01-02T04:03:26.873Z,7.03
2019-01-02T04:05:59.615Z,6.90
2019-01-02T04:08:32.538Z,6.83
2019-01-02T04:11:05.192Z,6.40
2019-01-02T04:13:37.802Z,7.80
2019-01-02T04:16:10.050Z,9.07
2019-01-02T04:18:43.133Z,8.73
2019-01-02T04:21:15.965Z,8.00
2019-01-02T04:23:49.147Z,8.40
2019-01-02T04:26:21.615Z,8.60
2019-01-02T04:28:54.566Z,8.97
2019-01-02T04:31:27.144Z,7.57
2019-01-02T04:34:02.936Z,6.60
2019-01-02T04:36:35.866Z,7.00
2019-01-02T04:39:09.246Z,6.43
2019-01-02T04:41:42.927Z,7.70
2019-01-02T04:44:15.722Z,6.33
2019-01-02T04:46:48.187Z,6.60
2019-01-02T04:49:21.566Z,6.47
2019-01-02T04:51:53.878Z,7.27
2019-01-02T04:54:27.392Z,6.87
2019-01-02T04:57:02.488Z,6.07
2019-01-02T04:59:35.780Z,6.40
2019-01-02T05:02:08.233Z,5.77
2019-01-02T05:04:41.353Z,6.03
2019-01-02T05:07:16.348Z,5.73
2019-01-02T05:09:48.921Z,5.83
2019-01-02T05:12:21.598Z,6.13
2019-01-02T05:14:55.092Z,5.83
2019-01-02T05:17:28.305Z,6.30
2019-01-02T05:20:01.025Z,6.37
2019-01-02T05:22:34.583Z,6.37
2019-01-02T05:25:08.240Z,7.47
2019-01-02T05:27:43.114Z,10.83
2019-01-02T05:30:17.408Z,8.23
2019-01-02T05:32:50.185Z,8.60
2019-01-02T05:35:23.767Z,8.53
2019-01-02T05:37:59.029Z,8.70
2019-01-02T05:40:34.277Z,10.00
2019-01-02T05:43:07.081Z,9.73
2019-01-02T05:45:39.728Z,8.47
2019-01-02T05:48:12.059Z,8.80
2019-01-02T05:50:45.724Z,8.87
2019-01-02T05:53:18.675Z,9.10
2019-01-02T05:55:51.633Z,9.07
2019-01-02T05:58:24.252Z,9.57
2019-01-02T06:00:57.476Z,11.90
2019-01-02T06:03:29.943Z,12.10
2019-01-02T06:06:02.804Z,12.00
2019-01-02T06:08:37.825Z,12.60
2019-01-02T06:11:10.941Z,12.10
2019-01-02T06:13:43.716Z,13.23
2019-01-02T06:16:16.738Z,10.37
2019-01-02T06:18:52.186Z,10.07
2019-01-02T06:21:25.005Z,9.67
2019-01-02T06:23:57.425Z,10.53
2019-01-02T06:26:31.878Z,12.43
2019-01-02T06:29:04.317Z,11.73
2019-01-02T06:31:37.354Z,9.43
2019-01-02T06:34:09.652Z,11.43
2019-01-02T06:36:45.076Z,10.23
2019-01-02T06:39:19.395Z,10.47
2019-01-02T06:41:52.611Z,11.10
2019-01-02T06:44:27.568Z,12.33
2019-01-02T06:47:00.381Z,9.30
2019-01-02T06:49:32.844Z,10.57
2019-01-02T06:52:06.426Z,10.63
2019-01-02T06:54:41.969Z,10.63
2019-01-02T06:57:16.262Z,10.03
2019-01-02T06:59:48.549Z,9.90
2019-01-02T07:02:22.083Z,10.17
2019-01-02T07:04:54.838Z,9.87
2019-01-02T07:07:31.164Z,10.67
2019-01-02T07:10:04.606Z,10.17
2019-01-02T07:12:37.235Z,9.50
2019-01-02T07:15:10.166Z,9.80
2019-01-02T07:17:43.333Z,9.80
2019-01-02T07:20:16.762Z,18.67
2019-01-02T07:22:52.494Z,10.93
2019-01-02T07:25:24.679Z,10.97
2019-01-02T07:27:58.449Z,9.50
2019-01-02T07:30:32.015Z,9.43
2019-01-02T07:33:06.222Z,8.03
2019-01-02T07:35:46.988Z,9.33
2019-01-02T07:38:41.630Z,9.63
2019-01-02T07:41:35.868Z,10.20
2019-01-02T07:44:33.646Z,14.33
2019-01-02T07:47:13.606Z,13.17
2019-01-02T07:50:07.731Z,12.03
2019-01-02T07:52:57.494Z,10.63
2019-01-02T07:55:55.095Z,10.30
2019-01-02T07:58:36.729Z,8.87
2019-01-02T08:01:34.701Z,8.30
2019-01-02T08:04:11.950Z,9.87
2019-01-02T08:07:22.310Z,8.20
2019-01-02T08:10:08.271Z,11.83
2019-01-02T08:13:01.865Z,10.70
2019-01-02T08:15:51.471Z,9.83
2019-01-02T08:18:47.118Z,10.47
2019-01-02T08:21:47.766Z,7.43
2019-01-02T08:24:46.360Z,10.47
2019-01-02T08:27:47.322Z,10.57
2019-01-02T08:30:38.034Z,9.10
2019-01-02T08:33:27.804Z,9.47
2019-01-02T08:36:19.551Z,10.43
2019-01-02T08:39:10.456Z,11.20
2019-01-02T08:41:50.311Z,11.63
2019-01-02T08:44:40.258Z,13.47
2019-01-02T08:47:31.883Z,13.30
2019-01-02T08:50:29.646Z,13.30
2019-01-02T08:53:25.837Z,13.63
2019-01-02T08:56:15.822Z,12.93
2019-01-02T08:59:08.826Z,15.47
2019-01-02T09:01:48.077Z,10.30
2019-01-02T09:04:38.893Z,12.30
2019-01-02T09:07:16.169Z,12.70
2019-01-02T09:10:06.199Z,11.33
2019-01-02T09:12:50.549Z,12.40
2019-01-02T09:15:45.789Z,12.87
2019-01-02T09:18:42.761Z,12.43
2019-01-02T09:21:36.590Z,12.33
2019-01-02T09:24:26.603Z,16.37
2019-01-02T09:27:22.729Z,15.93
2019-01-02T09:30:12.411Z,14.20
2019-01-02T09:32:58.348Z,15.23
2019-01-02T09:35:59.408Z,13.63
2019-01-02T09:39:00.522Z,8.27
2019-01-02T09:41:59.874Z,8.90
2019-01-02T09:45:06.809Z,11.43
2019-01-02T09:48:11.091Z,10.77
2019-01-02T09:50:49.396Z,10.30
2019-01-02T09:53:32.495Z,9.40
2019-01-02T09:56:33.599Z,9.23
2019-01-02T09:59:31.210Z,11.27
2019-01-02T10:02:14.858Z,8.77
2019-01-02T10:05:01.866Z,12.33
2019-01-02T10:07:59.228Z,8.83
2019-01-02T10:10:52.486Z,8.47
2019-01-02T10:13:43.271Z,11.55
2019-01-02T10:16:44.794Z,9.63
2019-01-02T10:19:35.075Z,9.50
2019-01-02T10:22:29.667Z,9.03
2019-01-02T10:25:20.427Z,11.12
2019-01-02T10:28:07.102Z,8.53
2019-01-02T10:30:51.572Z,8.78
2019-01-02T10:33:43.524Z,8.10
2019-01-02T10:36:37.326Z,8.08
2019-01-02T10:39:23.765Z,6.85
2019-01-02T10:42:37.369Z,4.80
2019-01-02T10:45:22.087Z,6.60
2019-01-02T10:48:05.763Z,5.95
2019-01-02T10:51:04.526Z,4.30
2019-01-02T10:53:51.912Z,4.55
2019-01-02T10:56:49.650Z,4.53
2019-01-02T10:59:41.817Z,6.40
2019-01-02T11:02:39.456Z,9.40
2019-01-02T11:05:33.234Z,10.70
2019-01-02T11:08:26.315Z,14.07
2019-01-02T11:11:09.306Z,13.07
2019-01-02T11:13:48.326Z,15.37
2019-01-02T11:16:38.828Z,14.90
2019-01-02T11:19:35.638Z,16.17
2019-01-02T11:22:22.551Z,14.50
2019-01-02T11:25:12.398Z,13.07
2019-01-02T11:28:08.262Z,14.50
2019-01-02T11:30:53.737Z,12.70
2019-01-02T11:33:54.312Z,12.83
2019-01-02T11:36:47.636Z,11.67
2019-01-02T11:39:35.949Z,16.00
2019-01-02T11:42:32.471Z,12.57
2019-01-02T11:45:13.408Z,11.67
2019-01-02T11:47:47.130Z,11.90
2019-01-02T11:50:20.859Z,12.53
2019-01-02T11:52:54.690Z,12.40
2019-01-02T11:55:30.147Z,12.90
2019-01-02T11:58:03.457Z,9.87
2019-01-02T12:00:38.516Z,11.43
2019-01-02T12:03:13.140Z,13.10
2019-01-02T12:05:51.408Z,14.80
2019-01-02T12:08:24.718Z,14.67
2019-01-02T12:10:58.703Z,11.40
2019-01-02T12:13:33.100Z,12.30
2019-01-02T12:16:06.794Z,11.60
2019-01-02T12:18:42.802Z,11.57
2019-01-02T12:21:16.066Z,12.27
2019-01-02T12:23:49.326Z,13.50
2019-01-02T12:26:24.076Z,11.33
2019-01-02T12:29:03.060Z,10.37
2019-01-02T12:31:36.856Z,12.43
2019-01-02T12:34:09.780Z,11.53
2019-01-02T12:36:42.585Z,11.20
2019-01-02T12:39:19.038Z,13.30
2019-01-02T12:41:52.790Z,12.60
2019-01-02T12:44:26.914Z,12.23
2019-01-02T12:47:00.078Z,11.47
2019-01-02T12:49:32.816Z,12.00
2019-01-02T12:52:05.938Z,11.80
2019-01-02T12:54:39.048Z,14.57
2019-01-02T12:57:12.459Z,12.40
2019-01-02T12:59:46.512Z,12.23
2019-01-02T13:02:25.998Z,12.80
2019-01-02T13:05:05.065Z,13.17
2019-01-02T13:07:55.312Z,12.90
2019-01-02T13:10:31.860Z,14.80
2019-01-02T13:13:18.820Z,14.50
2019-01-02T13:16:10.839Z,15.60
2019-01-02T13:19:05.244Z,16.53
2019-01-02T13:21:59.944Z,21.10
2019-01-02T13:24:39.314Z,29.70
2019-01-02T13:27:40.596Z,28.67
2019-01-02T13:30:24.616Z,30.80
2019-01-02T13:33:18.666Z,32.20
2019-01-02T13:36:09.240Z,31.40
2019-01-02T13:39:01.908Z,30.73
2019-01-02T13:41:45.618Z,28.93
2019-01-02T13:44:22.852Z,28.33
2019-01-02T13:47:19.262Z,30.30
2019-01-02T13:49:54.998Z,27.77
2019-01-02T13:52:28.641Z,26.80
2019-01-02T13:55:06.464Z,27.53
2019-01-02T13:57:41.856Z,27.80
2019-01-02T14:00:18.481Z,26.23
2019-01-02T14:02:52.172Z,27.43
2019-01-02T14:05:25.233Z,26.80
2019-01-02T14:08:00.219Z,25.20
2019-01-02T14:10:34.096Z,26.63
2019-01-02T14:13:08.612Z,25.50
2019-01-02T14:15:41.592Z,27.67
2019-01-02T14:18:15.503Z,27.90
2019-01-02T14:20:49.862Z,28.23
2019-01-02T14:23:23.425Z,27.83
2019-01-02T14:25:58.104Z,25.20
2019-01-02T14:28:31.077Z,27.33
2019-01-02T14:31:06.128Z,28.03
2019-01-02T14:33:38.698Z,23.17
2019-01-02T14:36:12.205Z,23.67
2019-01-02T14:38:46.863Z,21.10
2019-01-02T14:41:19.402Z,20.80
2019-01-02T14:43:53.376Z,20.90
2019-01-02T14:46:29.746Z,19.93
2019-01-02T14:49:05.866Z,18.73
2019-01-02T14:51:38.805Z,18.60
2019-01-02T14:54:11.562Z,20.57
2019-01-02T14:56:44.708Z,25.93
2019-01-02T14:59:18.259Z,18.77
2019-01-02T15:01:55.430Z,15.60
2019-01-02T15:04:28.180Z,16.77
2019-01-02T15:07:01.840Z,15.23
2019-01-02T15:09:37.346Z,15.43
2019-01-02T15:12:12.162Z,15.30
2019-01-02T15:14:46.187Z,16.20
2019-01-02T15:17:20.044Z,18.20
2019-01-02T15:19:55.004Z,18.13
2019-01-02T15:22:29.892Z,20.00
2019-01-02T15:25:02.942Z,19.77
2019-01-02T15:27:37.740Z,19.73
2019-01-02T15:30:13.158Z,20.70
2019-01-02T15:32:49.884Z,20.17
2019-01-02T15:35:23.531Z,19.30
2019-01-02T15:37:56.444Z,17.33
2019-01-02T15:40:31.348Z,16.97
2019-01-02T15:43:07.667Z,16.60
2019-01-02T15:45:41.034Z,17.60
2019-01-02T15:48:15.346Z,18.73
2019-01-02T15:50:49.712Z,16.73
2019-01-02T15:53:23.851Z,20.93
2019-01-02T15:55:56.724Z,17.63
2019-01-02T15:58:29.263Z,16.37
2019-01-02T16:01:03.854Z,15.73
2019-01-02T16:03:37.654Z,16.87
2019-01-02T16:06:12.541Z,20.73
2019-01-02T16:08:47.593Z,18.60
2019-01-02T16:11:20.556Z,19.70
2019-01-02T16:13:53.601Z,19.37
2019-01-02T16:16:27.424Z,18.60
2019-01-02T16:19:02.775Z,23.73
2019-01-02T16:21:37.282Z,20.30
2019-01-02T16:24:13.374Z,21.77
2019-01-02T16:26:48.607Z,19.97
2019-01-02T16:29:21.422Z,22.23
2019-01-02T16:31:55.750Z,24.33
2019-01-02T16:34:41.922Z,21.60
2019-01-02T16:37:14.730Z,24.97
2019-01-02T16:39:48.546Z,24.90
2019-01-02T16:42:22.094Z,24.57
2019-01-02T16:44:55.401Z,27.10
2019-01-02T16:47:28.380Z,27.43
2019-01-02T16:50:03.366Z,28.63
2019-01-02T16:52:37.592Z,26.07
2019-01-02T16:55:10.977Z,28.03
2019-01-02T16:57:43.988Z,28.90
2019-01-02T17:00:17.334Z,24.10
2019-01-02T17:02:50.514Z,28.33
2019-01-02T17:05:23.404Z,20.90
2019-01-02T17:07:56.982Z,17.03
2019-01-02T17:10:29.628Z,9.47
2019-01-02T17:13:04.640Z,5.07
2019-01-02T17:15:38.232Z,4.23
2019-01-02T17:18:11.864Z,3.93
2019-01-02T17:20:46.158Z,3.40
2019-01-02T17:23:31.150Z,5.30
2019-01-02T17:26:09.330Z,3.30
2019-01-02T17:28:44.116Z,5.30
2019-01-02T17:31:22.652Z,4.80
2019-01-02T17:34:00.043Z,3.00
2019-01-02T17:36:32.589Z,3.50
2019-01-02T17:39:06.993Z,4.43
2019-01-02T17:41:41.582Z,5.13
2019-01-02T17:44:14.277Z,7.57
2019-01-02T17:46:46.888Z,6.13
2019-01-02T17:49:19.883Z,4.70
2019-01-02T17:51:52.457Z,6.47
2019-01-02T17:54:26.704Z,4.80
2019-01-02T17:56:59.227Z,4.70
2019-01-02T17:59:31.934Z,3.80
2019-01-02T18:02:05.173Z,3.40
2019-01-02T18:04:38.794Z,2.87
2019-01-02T18:07:11.322Z,2.83
2019-01-02T18:09:48.800Z,3.50
2019-01-02T18:12:21.264Z,7.93
2019-01-02T18:14:54.914Z,4.50
2019-01-02T18:17:29.692Z,5.00
2019-01-02T18:20:02.877Z,4.87
2019-01-02T18:22:35.164Z,6.33
2019-01-02T18:25:07.698Z,6.60
2019-01-02T18:27:40.396Z,6.87
2019-01-02T18:30:13.775Z,6.53
2019-01-02T18:32:46.417Z,6.60
2019-01-02T18:35:19.277Z,9.87
2019-01-02T18:37:53.655Z,8.43
2019-01-02T18:40:27.887Z,6.70
2019-01-02T18:43:00.949Z,5.10
2019-01-02T18:45:34.060Z,4.47
2019-01-02T18:48:07.212Z,3.90
2019-01-02T18:50:46.441Z,3.17
2019-01-02T18:53:19.189Z,4.50
2019-01-02T18:55:52.550Z,3.30
2019-01-02T18:58:25.765Z,3.67
2019-01-02T19:00:58.342Z,3.07
2019-01-02T19:03:31.143Z,3.63
2019-01-02T19:06:04.052Z,5.13
2019-01-02T19:08:36.595Z,3.63
2019-01-02T19:11:18.721Z,6.87
2019-01-02T19:13:52.331Z,5.13
2019-01-02T19:16:25.205Z,3.67
2019-01-02T19:18:57.811Z,5.83
2019-01-02T19:21:31.283Z,4.83
2019-01-02T19:24:05.297Z,3.73
2019-01-02T19:26:38.405Z,9.17
2019-01-02T19:29:10.921Z,4.57
2019-01-02T19:31:44.765Z,4.47
2019-01-02T19:34:17.508Z,6.37
2019-01-02T19:36:51.179Z,7.67
2019-01-02T19:39:24.193Z,8.20
2019-01-02T19:41:57.131Z,5.90
2019-01-02T19:44:29.521Z,5.23
2019-01-02T19:47:02.655Z,4.97
2019-01-02T19:49:35.115Z,3.90
2019-01-02T19:52:08.822Z,5.00
2019-01-02T19:54:41.415Z,2.87
2019-01-02T19:57:14.780Z,2.43
2019-01-02T19:59:47.375Z,2.10
2019-01-02T20:02:20.889Z,2.47
2019-01-02T20:04:53.761Z,2.70
2019-01-02T20:07:26.569Z,1.93
2019-01-02T20:10:00.015Z,3.20
2019-01-02T20:12:32.535Z,2.40
2019-01-02T20:15:05.077Z,2.80
2019-01-02T20:17:39.012Z,2.60
2019-01-02T20:20:13.054Z,2.60
2019-01-02T20:22:45.759Z,3.33
2019-01-02T20:25:18.322Z,2.40
2019-01-02T20:27:51.821Z,2.60
2019-01-02T20:30:24.373Z,2.50
2019-01-02T20:32:57.692Z,2.10
2019-01-02T20:35:30.377Z,3.00
2019-01-02T20:38:02.888Z,3.60
2019-01-02T20:40:36.792Z,2.60
2019-01-02T20:43:10.625Z,2.73
2019-01-02T20:45:45.155Z,2.53
2019-01-02T20:48:18.922Z,5.73
2019-01-02T20:50:52.511Z,4.30
2019-01-02T20:53:25.115Z,3.47
2019-01-02T20:55:57.516Z,3.53
2019-01-02T20:58:30.875Z,5.27
2019-01-02T21:01:03.527Z,4.63
2019-01-02T21:03:36.441Z,2.57
2019-01-02T21:06:08.967Z,1.90
2019-01-02T21:08:41.947Z,4.40
2019-01-02T21:11:14.641Z,4.93
2019-01-02T21:13:47.224Z,3.07
2019-01-02T21:16:20.120Z,2.40
2019-01-02T21:18:53.209Z,3.37
2019-01-02T21:21:25.837Z,3.57
2019-01-02T21:23:59.025Z,4.20
2019-01-02T21:26:32.496Z,2.27
2019-01-02T21:29:05.391Z,1.90
2019-01-02T21:31:38.208Z,2.67
2019-01-02T21:34:11.812Z,2.70
2019-01-02T21:36:44.399Z,3.57
2019-01-02T21:39:18.082Z,5.83
2019-01-02T21:41:51.558Z,3.70
2019-01-02T21:44:24.606Z,4.33
2019-01-02T21:46:57.633Z,3.17
2019-01-02T21:49:30.202Z,2.50
2019-01-02T21:52:02.568Z,2.30
2019-01-02T21:54:35.341Z,2.70
2019-01-02T21:57:12.457Z,3.53
2019-01-02T21:59:46.309Z,2.63
2019-01-02T22:02:18.947Z,5.40
2019-01-02T22:04:51.927Z,4.03
2019-01-02T22:07:25.037Z,4.17
2019-01-02T22:09:58.235Z,28.63
2019-01-02T22:12:31.074Z,8.00
2019-01-02T22:15:03.899Z,7.80
2019-01-02T22:17:36.504Z,6.03
2019-01-02T22:20:09.361Z,4.40
2019-01-02T22:22:41.909Z,3.20
2019-01-02T22:25:14.464Z,4.63
2019-01-02T22:27:46.984Z,4.60
2019-01-02T22:30:21.687Z,5.00
2019-01-02T22:32:55.338Z,4.80
2019-01-02T22:35:28.138Z,4.73
2019-01-02T22:38:00.078Z,4.57
2019-01-02T22:40:33.615Z,4.13
2019-01-02T22:43:06.027Z,4.67
2019-01-02T22:45:38.906Z,4.60
2019-01-02T22:48:11.418Z,4.70
2019-01-02T22:50:44.933Z,3.60
2019-01-02T22:53:17.968Z,4.80
2019-01-02T22:55:50.940Z,5.07
2019-01-02T22:58:23.087Z,4.47
2019-01-02T23:01:29.602Z,3.50
2019-01-02T23:04:13.701Z,4.47
2019-01-02T23:07:06.678Z,4.20
2019-01-02T23:09:57.766Z,4.87
2019-01-02T23:12:53.394Z,3.27
2019-01-02T23:15:46.002Z,3.10
2019-01-02T23:18:48.474Z,4.47
2019-01-02T23:21:39.567Z,5.77
2019-01-02T23:24:43.260Z,5.03
2019-01-02T23:27:36.277Z,10.90
2019-01-02T23:30:29.295Z,5.50
2019-01-02T23:33:22.633Z,5.13
2019-01-02T23:36:25.705Z,7.07
2019-01-02T23:39:18.254Z,5.20
2019-01-02T23:42:29.738Z,4.53
2019-01-02T23:45:22.701Z,4.27
2019-01-02T23:48:34.979Z,5.63
2019-01-02T23:51:34.327Z,5.20
2019-01-02T23:54:41.604Z,5.70
2019-01-02T23:57:32.812Z,5.92
